createdAt,value
2018-05-23T00:01:41.869Z,8.23
2018-05-23T00:04:08.151Z,9.37
2018-05-23T00:06:34.457Z,9.30
2018-05-23T00:09:00.675Z,8.00
2018-05-23T00:11:29.075Z,7.50
2018-05-23T00:13:55.341Z,7.27
2018-05-23T00:16:21.613Z,8.10
2018-05-23T00:18:48.654Z,6.50
2018-05-23T00:21:14.889Z,7.17
2018-05-23T00:23:41.169Z,8.07
2018-05-23T00:26:07.421Z,7.90
2018-05-23T00:28:33.653Z,9.17
2018-05-23T00:30:59.909Z,7.00
2018-05-23T00:33:26.166Z,7.33
2018-05-23T00:35:52.449Z,7.93
2018-05-23T00:38:18.728Z,8.30
2018-05-23T00:40:44.985Z,8.20
2018-05-23T00:43:11.289Z,6.53
2018-05-23T00:45:37.529Z,7.33
2018-05-23T00:48:03.835Z,7.97
2018-05-23T00:50:30.123Z,7.10
2018-05-23T00:52:59.715Z,9.70
2018-05-23T00:55:33.360Z,7.53
2018-05-23T00:58:00.362Z,6.30
2018-05-23T01:00:26.679Z,7.17
2018-05-23T01:02:52.957Z,6.37
2018-05-23T01:05:19.233Z,9.83
2018-05-23T01:07:45.495Z,7.17
2018-05-23T01:10:11.814Z,7.50
2018-05-23T01:12:38.118Z,10.33
2018-05-23T01:15:05.085Z,8.90
2018-05-23T01:17:32.096Z,8.20
2018-05-23T01:19:58.361Z,8.13
2018-05-23T01:22:25.381Z,7.83
2018-05-23T01:24:51.613Z,9.17
2018-05-23T01:27:17.909Z,9.77
2018-05-23T01:29:44.161Z,8.50
2018-05-23T01:32:10.446Z,9.57
2018-05-23T01:34:36.731Z,9.63
2018-05-23T01:37:03.013Z,10.17
2018-05-23T01:39:29.322Z,11.10
2018-05-23T01:41:55.581Z,16.87
2018-05-23T01:44:21.839Z,7.07
2018-05-23T01:46:48.842Z,11.97
2018-05-23T01:49:25.297Z,6.63
2018-05-23T01:51:51.561Z,7.83
2018-05-23T01:54:17.844Z,10.93
2018-05-23T01:56:44.145Z,11.27
2018-05-23T01:59:10.442Z,10.00
2018-05-23T02:01:36.697Z,13.93
2018-05-23T02:04:02.957Z,11.73
2018-05-23T02:06:29.232Z,12.50
2018-05-23T02:08:55.477Z,10.40
2018-05-23T02:11:21.759Z,10.03
2018-05-23T02:13:47.989Z,11.20
2018-05-23T02:16:14.265Z,10.07
2018-05-23T02:18:40.505Z,11.50
2018-05-23T02:21:06.769Z,11.00
2018-05-23T02:23:33.025Z,11.40
2018-05-23T02:25:59.308Z,10.30
2018-05-23T02:28:25.557Z,11.27
2018-05-23T02:30:51.842Z,10.93
2018-05-23T02:33:18.101Z,11.03
2018-05-23T02:35:45.081Z,10.70
2018-05-23T02:38:11.345Z,11.40
2018-05-23T02:40:37.598Z,11.43
2018-05-23T02:43:03.885Z,11.37
2018-05-23T02:45:30.178Z,11.17
2018-05-23T02:47:56.473Z,11.07
2018-05-23T02:50:22.742Z,10.93
2018-05-23T02:52:49.013Z,11.48
2018-05-23T02:55:15.269Z,10.67
2018-05-23T02:57:41.554Z,8.90
2018-05-23T03:00:07.845Z,10.33
2018-05-23T03:02:34.105Z,9.90
2018-05-23T03:05:00.341Z,10.50
2018-05-23T03:07:26.589Z,10.60
2018-05-23T03:09:52.861Z,9.53
2018-05-23T03:12:19.081Z,10.07
2018-05-23T03:14:46.130Z,10.37
2018-05-23T03:17:13.181Z,12.07
2018-05-23T03:19:40.190Z,10.07
2018-05-23T03:22:06.541Z,10.17
2018-05-23T03:24:32.762Z,11.63
2018-05-23T03:26:59.001Z,9.30
2018-05-23T03:29:25.310Z,10.97
2018-05-23T03:31:51.561Z,9.97
2018-05-23T03:34:17.818Z,9.97
2018-05-23T03:36:44.057Z,9.07
2018-05-23T03:39:10.337Z,11.40
2018-05-23T03:41:36.591Z,11.73
2018-05-23T03:44:02.914Z,9.07
2018-05-23T03:46:29.187Z,9.40
2018-05-23T03:48:55.495Z,8.90
2018-05-23T03:51:21.837Z,9.87
2018-05-23T03:53:48.163Z,14.37
2018-05-23T03:56:14.472Z,9.63
2018-05-23T03:58:41.458Z,9.93
2018-05-23T04:01:26.301Z,11.93
2018-05-23T04:04:11.841Z,12.60
2018-05-23T04:06:56.577Z,10.23
2018-05-23T04:09:22.869Z,10.60
2018-05-23T04:11:49.945Z,11.17
2018-05-23T04:14:16.222Z,10.23
2018-05-23T04:16:42.496Z,10.10
2018-05-23T04:19:09.485Z,9.73
2018-05-23T04:21:35.758Z,8.27
2018-05-23T04:24:02.089Z,10.40
2018-05-23T04:26:28.329Z,10.13
2018-05-23T04:28:55.377Z,11.47
2018-05-23T04:31:21.667Z,11.17
2018-05-23T04:33:48.706Z,9.30
2018-05-23T04:36:15.133Z,9.80
2018-05-23T04:38:42.130Z,9.83
2018-05-23T04:41:08.393Z,9.70
2018-05-23T04:43:35.405Z,8.90
2018-05-23T04:46:01.742Z,9.67
2018-05-23T04:48:28.073Z,9.77
2018-05-23T04:50:54.337Z,9.60
2018-05-23T04:53:20.641Z,10.83
2018-05-23T04:55:46.929Z,10.67
2018-05-23T04:58:13.203Z,12.00
2018-05-23T05:00:39.465Z,9.60
2018-05-23T05:03:05.728Z,11.73
2018-05-23T05:05:32.018Z,9.90
2018-05-23T05:07:58.321Z,11.80
2018-05-23T05:10:25.346Z,12.03
2018-05-23T05:12:51.606Z,11.83
2018-05-23T05:15:18.613Z,9.43
2018-05-23T05:17:44.864Z,10.30
2018-05-23T05:20:11.158Z,9.93
2018-05-23T05:22:37.477Z,9.27
2018-05-23T05:25:08.323Z,9.90
2018-05-23T05:27:35.580Z,10.67
2018-05-23T05:30:02.609Z,9.03
2018-05-23T05:32:28.851Z,9.30
2018-05-23T05:34:55.883Z,11.40
2018-05-23T05:37:22.159Z,8.67
2018-05-23T05:39:48.505Z,13.23
2018-05-23T05:42:14.730Z,9.57
2018-05-23T05:44:43.121Z,9.80
2018-05-23T05:47:09.381Z,9.40
2018-05-23T05:49:35.664Z,9.03
2018-05-23T05:52:02.733Z,9.83
2018-05-23T05:54:29.757Z,11.33
2018-05-23T05:56:56.172Z,9.13
2018-05-23T05:59:22.431Z,10.50
2018-05-23T06:01:48.742Z,10.83
2018-05-23T06:04:15.568Z,14.20
2018-05-23T06:06:41.893Z,11.17
2018-05-23T06:09:08.170Z,11.43
2018-05-23T06:11:34.437Z,11.10
2018-05-23T06:14:01.457Z,18.63
2018-05-23T06:16:27.727Z,11.40
2018-05-23T06:18:54.005Z,10.30
2018-05-23T06:21:20.341Z,11.00
2018-05-23T06:23:46.605Z,11.13
2018-05-23T06:26:12.907Z,15.20
2018-05-23T06:28:39.194Z,10.63
2018-05-23T06:31:05.462Z,11.90
2018-05-23T06:33:32.494Z,12.10
2018-05-23T06:35:58.757Z,10.00
2018-05-23T06:38:25.014Z,12.87
2018-05-23T06:40:51.269Z,10.07
2018-05-23T06:43:17.548Z,9.80
2018-05-23T06:45:44.515Z,9.47
2018-05-23T06:48:10.790Z,10.13
2018-05-23T06:50:37.085Z,12.23
2018-05-23T06:53:03.309Z,11.27
2018-05-23T06:55:30.345Z,15.40
2018-05-23T06:57:56.626Z,16.90
2018-05-23T07:00:22.939Z,9.77
2018-05-23T07:02:49.224Z,12.20
2018-05-23T07:05:15.493Z,11.73
2018-05-23T07:07:41.731Z,11.23
2018-05-23T07:10:08.761Z,11.07
2018-05-23T07:12:35.013Z,13.43
2018-05-23T07:15:01.322Z,13.83
2018-05-23T07:17:27.570Z,13.60
2018-05-23T07:19:53.807Z,12.40
2018-05-23T07:22:20.063Z,12.80
2018-05-23T07:24:47.113Z,16.73
2018-05-23T07:27:13.415Z,13.70
2018-05-23T07:29:39.653Z,14.30
2018-05-23T07:32:05.914Z,14.63
2018-05-23T07:34:32.937Z,14.20
2018-05-23T07:36:59.205Z,13.67
2018-05-23T07:39:25.453Z,13.67
2018-05-23T07:41:52.508Z,12.90
2018-05-23T07:44:18.769Z,15.37
2018-05-23T07:46:45.134Z,15.87
2018-05-23T07:49:11.397Z,18.10
2018-05-23T07:51:37.679Z,21.27
2018-05-23T07:54:03.917Z,14.17
2018-05-23T07:56:30.182Z,17.57
2018-05-23T07:58:56.480Z,17.00
2018-05-23T08:01:22.746Z,18.13
2018-05-23T08:03:48.997Z,16.13
2018-05-23T08:06:15.230Z,17.97
2018-05-23T08:08:41.486Z,15.20
2018-05-23T08:11:08.495Z,16.20
2018-05-23T08:13:34.777Z,15.50
2018-05-23T08:16:01.790Z,14.30
2018-05-23T08:18:28.117Z,14.43
2018-05-23T08:20:54.361Z,15.50
2018-05-23T08:23:20.645Z,13.30
2018-05-23T08:25:47.653Z,13.13
2018-05-23T08:28:13.909Z,13.87
2018-05-23T08:30:40.224Z,14.50
2018-05-23T08:33:06.521Z,13.73
2018-05-23T08:35:32.821Z,13.07
2018-05-23T08:37:59.105Z,15.77
2018-05-23T08:40:25.340Z,11.97
2018-05-23T08:42:51.614Z,11.63
2018-05-23T08:45:17.872Z,11.67
2018-05-23T08:47:44.918Z,10.87
2018-05-23T08:50:11.237Z,12.00
2018-05-23T08:52:38.768Z,9.73
2018-05-23T08:55:05.989Z,16.47
2018-05-23T08:57:33.021Z,9.40
2018-05-23T08:59:59.364Z,8.77
2018-05-23T09:02:25.630Z,8.93
2018-05-23T09:04:52.015Z,8.47
2018-05-23T09:07:18.962Z,11.47
2018-05-23T09:09:45.273Z,8.73
2018-05-23T09:12:11.629Z,10.70
2018-05-23T09:14:37.946Z,15.33
2018-05-23T09:17:04.260Z,9.03
2018-05-23T09:19:31.273Z,7.67
2018-05-23T09:21:57.557Z,7.60
2018-05-23T09:24:23.788Z,7.47
2018-05-23T09:26:50.083Z,10.37
2018-05-23T09:29:16.375Z,7.00
2018-05-23T09:31:42.661Z,8.03
2018-05-23T09:34:08.949Z,7.77
2018-05-23T09:36:35.242Z,7.10
2018-05-23T09:39:01.546Z,7.47
2018-05-23T09:41:27.865Z,7.33
2018-05-23T09:43:54.117Z,6.50
2018-05-23T09:46:20.403Z,6.43
2018-05-23T09:48:46.687Z,8.50
2018-05-23T09:51:12.993Z,7.53
2018-05-23T09:53:39.286Z,5.63
2018-05-23T09:56:05.550Z,7.40
2018-05-23T09:58:32.630Z,10.87
2018-05-23T10:00:58.933Z,9.63
2018-05-23T10:03:25.964Z,7.37
2018-05-23T10:05:52.284Z,8.53
2018-05-23T10:08:18.544Z,10.47
2018-05-23T10:10:45.573Z,8.07
2018-05-23T10:13:11.878Z,7.60
2018-05-23T10:15:38.126Z,9.40
2018-05-23T10:18:04.370Z,9.77
2018-05-23T10:20:30.633Z,13.03
2018-05-23T10:22:56.901Z,6.90
2018-05-23T10:25:23.920Z,7.80
2018-05-23T10:27:50.170Z,7.93
2018-05-23T10:30:17.196Z,11.33
2018-05-23T10:32:43.421Z,9.33
2018-05-23T10:35:09.674Z,8.53
2018-05-23T10:37:35.957Z,7.40
2018-05-23T10:40:02.237Z,7.83
2018-05-23T10:42:28.502Z,12.33
2018-05-23T10:44:55.562Z,7.80
2018-05-23T10:47:22.606Z,9.60
2018-05-23T10:49:48.881Z,6.50
2018-05-23T10:52:15.141Z,9.00
2018-05-23T10:54:41.410Z,8.03
2018-05-23T10:57:07.760Z,10.90
2018-05-23T10:59:33.989Z,8.10
2018-05-23T11:02:01.035Z,7.30
2018-05-23T11:04:27.269Z,7.87
2018-05-23T11:06:53.574Z,6.90
2018-05-23T11:09:19.868Z,9.43
2018-05-23T11:11:46.840Z,6.87
2018-05-23T11:14:13.093Z,8.23
2018-05-23T11:16:39.349Z,9.77
2018-05-23T11:19:05.628Z,7.13
2018-05-23T11:21:31.901Z,6.63
2018-05-23T11:23:58.239Z,10.00
2018-05-23T11:26:24.542Z,6.33
2018-05-23T11:28:50.837Z,7.73
2018-05-23T11:31:17.104Z,9.60
2018-05-23T11:33:43.378Z,9.67
2018-05-23T11:36:09.712Z,7.17
2018-05-23T11:38:35.985Z,9.23
2018-05-23T11:41:02.241Z,6.97
2018-05-23T11:43:29.272Z,9.17
2018-05-23T11:45:55.565Z,7.27
2018-05-23T11:48:21.832Z,6.87
2018-05-23T11:50:48.155Z,6.53
2018-05-23T11:53:14.674Z,10.53
2018-05-23T11:55:40.954Z,6.13
2018-05-23T11:58:07.227Z,5.53
2018-05-23T12:00:33.524Z,6.60
2018-05-23T12:02:59.793Z,6.30
2018-05-23T12:05:26.798Z,5.93
2018-05-23T12:07:53.055Z,8.93
2018-05-23T12:10:19.444Z,7.53
2018-05-23T12:12:45.692Z,7.37
2018-05-23T12:15:11.953Z,8.23
2018-05-23T12:17:38.257Z,9.43
2018-05-23T12:20:04.575Z,8.90
2018-05-23T12:22:30.856Z,10.13
2018-05-23T12:24:57.168Z,9.43
2018-05-23T12:27:23.525Z,7.73
2018-05-23T12:29:49.740Z,9.23
2018-05-23T12:32:15.997Z,6.03
2018-05-23T12:34:42.257Z,6.03
2018-05-23T12:37:09.332Z,6.30
2018-05-23T12:39:35.660Z,6.40
2018-05-23T12:42:02.711Z,5.50
2018-05-23T12:44:29.693Z,6.63
2018-05-23T12:46:55.962Z,12.47
2018-05-23T12:49:22.255Z,7.97
2018-05-23T12:51:48.513Z,5.00
2018-05-23T12:54:14.829Z,5.43
2018-05-23T12:56:41.141Z,6.80
2018-05-23T12:59:08.151Z,7.03
2018-05-23T13:01:34.443Z,6.20
2018-05-23T13:04:00.702Z,7.80
2018-05-23T13:06:26.977Z,7.03
2018-05-23T13:08:53.238Z,8.47
2018-05-23T13:11:20.301Z,5.17
2018-05-23T13:13:47.273Z,5.67
2018-05-23T13:16:13.533Z,4.73
2018-05-23T13:18:39.820Z,7.27
2018-05-23T13:21:06.889Z,5.53
2018-05-23T13:23:33.161Z,7.03
2018-05-23T13:25:59.486Z,4.70
2018-05-23T13:28:25.713Z,4.97
2018-05-23T13:30:52.041Z,6.03
2018-05-23T13:33:18.385Z,4.57
2018-05-23T13:35:44.689Z,8.60
2018-05-23T13:38:11.702Z,6.23
2018-05-23T13:40:37.989Z,5.00
2018-05-23T13:43:05.032Z,5.50
2018-05-23T13:45:31.309Z,9.90
2018-05-23T13:47:57.601Z,6.93
2018-05-23T13:50:24.669Z,5.67
2018-05-23T13:52:50.964Z,5.13
2018-05-23T13:55:17.292Z,6.53
2018-05-23T13:57:43.568Z,7.67
2018-05-23T14:00:09.881Z,6.97
2018-05-23T14:02:36.131Z,5.33
2018-05-23T14:05:02.437Z,5.70
2018-05-23T14:07:28.732Z,7.13
2018-05-23T14:09:55.006Z,6.33
2018-05-23T14:12:21.329Z,9.20
2018-05-23T14:14:47.613Z,8.13
2018-05-23T14:17:14.644Z,5.87
2018-05-23T14:19:40.885Z,5.87
2018-05-23T14:22:07.166Z,7.40
2018-05-23T14:24:33.474Z,6.67
2018-05-23T14:27:00.502Z,6.43
2018-05-23T14:29:26.789Z,5.53
2018-05-23T14:31:53.053Z,4.93
2018-05-23T14:34:19.328Z,9.23
2018-05-23T14:36:46.396Z,5.30
2018-05-23T14:39:12.730Z,5.60
2018-05-23T14:41:39.716Z,6.17
2018-05-23T14:44:06.041Z,5.50
2018-05-23T14:46:32.348Z,7.27
2018-05-23T14:48:59.353Z,6.33
2018-05-23T14:51:25.631Z,5.00
2018-05-23T14:53:52.684Z,4.93
2018-05-23T14:56:19.783Z,5.57
2018-05-23T14:58:46.001Z,5.00
2018-05-23T15:01:12.301Z,7.23
2018-05-23T15:03:39.302Z,6.30
2018-05-23T15:06:05.572Z,6.13
2018-05-23T15:08:31.901Z,6.93
2018-05-23T15:10:58.173Z,6.87
2018-05-23T15:13:25.209Z,6.43
2018-05-23T15:15:51.481Z,6.83
2018-05-23T15:18:17.774Z,9.00
2018-05-23T15:20:44.060Z,6.80
2018-05-23T15:23:10.297Z,7.37
2018-05-23T15:25:36.537Z,8.77
2018-05-23T15:28:02.821Z,9.17
2018-05-23T15:30:29.115Z,7.73
2018-05-23T15:32:55.376Z,10.07
2018-05-23T15:35:21.625Z,10.03
2018-05-23T15:37:47.978Z,8.80
2018-05-23T15:40:14.982Z,9.17
2018-05-23T15:42:41.279Z,10.93
2018-05-23T15:45:07.613Z,9.93
2018-05-23T15:47:34.625Z,9.27
2018-05-23T15:50:00.895Z,11.87
2018-05-23T15:52:27.940Z,13.80
2018-05-23T15:54:54.896Z,8.93
2018-05-23T15:57:21.885Z,10.53
2018-05-23T15:59:48.146Z,9.10
2018-05-23T16:02:14.428Z,10.80
2018-05-23T16:04:41.385Z,12.33
2018-05-23T16:07:07.692Z,10.30
2018-05-23T16:09:33.967Z,10.40
2018-05-23T16:12:00.265Z,16.17
2018-05-23T16:14:26.529Z,10.97
2018-05-23T16:16:52.788Z,10.37
2018-05-23T16:19:19.046Z,9.37
2018-05-23T16:21:45.321Z,11.97
2018-05-23T16:24:12.331Z,11.07
2018-05-23T16:26:38.569Z,11.10
2018-05-23T16:29:04.851Z,8.73
2018-05-23T16:31:31.861Z,10.70
2018-05-23T16:33:58.140Z,10.67
2018-05-23T16:36:25.141Z,8.90
2018-05-23T16:38:51.400Z,9.13
2018-05-23T16:41:17.640Z,10.23
2018-05-23T16:43:43.868Z,9.60
2018-05-23T16:46:10.166Z,9.57
2018-05-23T16:48:36.458Z,9.50
2018-05-23T16:51:06.544Z,9.33
2018-05-23T16:53:32.947Z,9.57
2018-05-23T16:55:59.226Z,10.40
2018-05-23T16:58:25.520Z,9.73
2018-05-23T17:00:51.812Z,9.20
2018-05-23T17:03:18.077Z,10.27
2018-05-23T17:05:45.119Z,10.77
2018-05-23T17:08:12.093Z,8.37
2018-05-23T17:10:38.385Z,11.13
2018-05-23T17:13:04.686Z,15.03
2018-05-23T17:15:30.985Z,10.23
2018-05-23T17:17:58.002Z,11.07
2018-05-23T17:20:24.277Z,11.00
2018-05-23T17:22:51.309Z,10.67
2018-05-23T17:25:17.587Z,10.00
2018-05-23T17:27:43.890Z,9.33
2018-05-23T17:30:10.885Z,10.90
2018-05-23T17:32:39.139Z,13.83
2018-05-23T17:35:05.698Z,10.07
2018-05-23T17:37:32.033Z,10.23
2018-05-23T17:39:58.349Z,10.83
2018-05-23T17:42:25.318Z,11.00
2018-05-23T17:44:51.582Z,9.53
2018-05-23T17:47:18.191Z,9.57
2018-05-23T17:49:44.496Z,8.10
2018-05-23T17:52:10.818Z,10.73
2018-05-23T17:54:37.064Z,9.60
2018-05-23T17:57:03.980Z,11.33
2018-05-23T17:59:30.221Z,9.73
2018-05-23T18:01:56.531Z,10.10
2018-05-23T18:04:22.769Z,13.10
2018-05-23T18:06:49.046Z,10.27
2018-05-23T18:09:15.358Z,10.60
2018-05-23T18:11:41.605Z,11.53
2018-05-23T18:14:07.908Z,9.87
2018-05-23T18:16:34.177Z,12.53
2018-05-23T18:19:00.448Z,8.73
2018-05-23T18:21:27.484Z,13.13
2018-05-23T18:23:53.766Z,14.40
2018-05-23T18:26:20.026Z,10.47
2018-05-23T18:28:46.301Z,10.30
2018-05-23T18:31:13.342Z,9.93
2018-05-23T18:33:40.350Z,10.57
2018-05-23T18:36:06.674Z,9.27
2018-05-23T18:38:32.996Z,9.10
2018-05-23T18:40:59.997Z,12.17
2018-05-23T18:43:26.340Z,9.53
2018-05-23T18:45:52.558Z,9.80
2018-05-23T18:48:18.781Z,10.77
2018-05-23T18:50:45.082Z,9.17
2018-05-23T18:53:12.118Z,8.27
2018-05-23T18:55:38.446Z,10.37
2018-05-23T18:58:05.455Z,8.80
2018-05-23T19:00:31.793Z,8.53
2018-05-23T19:02:58.118Z,9.57
2018-05-23T19:05:24.419Z,8.73
2018-05-23T19:07:50.683Z,12.60
2018-05-23T19:10:16.941Z,10.23
2018-05-23T19:12:43.285Z,9.97
2018-05-23T19:15:09.641Z,6.60
2018-05-23T19:17:35.949Z,7.90
2018-05-23T19:20:02.299Z,8.70
2018-05-23T19:22:29.345Z,8.73
2018-05-23T19:24:55.640Z,9.63
2018-05-23T19:27:22.690Z,10.13
2018-05-23T19:29:49.730Z,10.43
2018-05-23T19:32:15.975Z,9.13
2018-05-23T19:34:43.918Z,9.50
2018-05-23T19:37:10.146Z,9.43
2018-05-23T19:39:36.465Z,9.10
2018-05-23T19:42:02.763Z,7.97
2018-05-23T19:44:29.798Z,7.63
2018-05-23T19:46:56.077Z,8.70
2018-05-23T19:49:22.362Z,9.47
2018-05-23T19:51:48.654Z,7.83
2018-05-23T19:54:14.907Z,7.77
2018-05-23T19:56:42.259Z,9.13
2018-05-23T19:59:08.629Z,8.50
2018-05-23T20:01:35.176Z,7.70
2018-05-23T20:04:03.238Z,9.67
2018-05-23T20:06:36.573Z,9.63
2018-05-23T20:09:04.491Z,9.00
2018-05-23T20:11:30.850Z,10.33
2018-05-23T20:13:57.240Z,9.97
2018-05-23T20:16:23.540Z,10.03
2018-05-23T20:18:50.290Z,8.63
2018-05-23T20:21:16.807Z,8.57
2018-05-23T20:23:43.090Z,10.90
2018-05-23T20:26:10.349Z,9.83
2018-05-23T20:28:36.677Z,13.07
2018-05-23T20:31:03.729Z,11.07
2018-05-23T20:33:30.768Z,9.47
2018-05-23T20:35:57.302Z,9.67
2018-05-23T20:38:23.617Z,9.73
2018-05-23T20:40:51.159Z,9.53
2018-05-23T20:43:17.477Z,11.83
2018-05-23T20:45:43.749Z,11.37
2018-05-23T20:48:10.026Z,9.67
2018-05-23T20:50:37.093Z,10.77
2018-05-23T20:53:04.144Z,10.67
2018-05-23T20:55:30.660Z,14.07
2018-05-23T20:57:57.718Z,11.20
2018-05-23T21:00:25.540Z,11.10
2018-05-23T21:02:52.601Z,10.30
2018-05-23T21:05:19.029Z,10.87
2018-05-23T21:07:45.185Z,9.37
2018-05-23T21:10:11.457Z,9.13
2018-05-23T21:12:37.730Z,10.23
2018-05-23T21:15:03.986Z,11.17
2018-05-23T21:17:30.253Z,11.43
2018-05-23T21:19:56.517Z,9.33
2018-05-23T21:22:26.076Z,10.47
2018-05-23T21:24:52.358Z,10.90
2018-05-23T21:27:18.562Z,10.77
2018-05-23T21:29:45.770Z,9.07
2018-05-23T21:32:12.057Z,11.27
2018-05-23T21:34:38.368Z,11.60
2018-05-23T21:37:05.381Z,11.17
2018-05-23T21:39:31.609Z,12.23
2018-05-23T21:41:58.623Z,11.73
2018-05-23T21:44:24.928Z,11.07
2018-05-23T21:46:51.225Z,12.03
2018-05-23T21:49:18.261Z,11.43
2018-05-23T21:51:44.533Z,12.63
2018-05-23T21:54:10.782Z,10.17
2018-05-23T21:56:37.010Z,11.47
2018-05-23T21:59:03.293Z,12.63
2018-05-23T22:01:29.568Z,12.30
2018-05-23T22:03:55.873Z,12.47
2018-05-23T22:06:22.185Z,12.87
2018-05-23T22:08:48.429Z,12.13
2018-05-23T22:11:14.709Z,12.90
2018-05-23T22:13:41.708Z,11.90
2018-05-23T22:16:07.986Z,11.43
2018-05-23T22:18:34.997Z,12.40
2018-05-23T22:21:01.269Z,15.57
2018-05-23T22:23:28.285Z,12.17
2018-05-23T22:25:54.541Z,11.63
2018-05-23T22:28:20.832Z,12.83
2018-05-23T22:30:47.065Z,12.27
2018-05-23T22:33:13.352Z,12.50
2018-05-23T22:35:39.600Z,10.77
2018-05-23T22:38:06.617Z,15.20
2018-05-23T22:40:32.849Z,15.10
2018-05-23T22:42:59.141Z,12.57
2018-05-23T22:45:25.438Z,13.63
2018-05-23T22:47:51.701Z,12.67
2018-05-23T22:50:18.710Z,12.90
2018-05-23T22:52:45.002Z,13.70
2018-05-23T22:55:11.273Z,12.30
2018-05-23T22:57:37.581Z,14.57
2018-05-23T23:00:03.877Z,13.13
2018-05-23T23:02:30.309Z,13.03
2018-05-23T23:04:56.598Z,14.03
2018-05-23T23:07:22.917Z,17.43
2018-05-23T23:09:49.973Z,13.83
2018-05-23T23:12:16.985Z,13.97
2018-05-23T23:14:43.281Z,13.47
2018-05-23T23:17:09.585Z,13.70
2018-05-23T23:19:36.631Z,14.20
2018-05-23T23:22:03.642Z,15.87
2018-05-23T23:24:29.916Z,14.50
2018-05-23T23:26:56.165Z,13.50
2018-05-23T23:29:23.168Z,13.37
2018-05-23T23:31:49.437Z,15.10
2018-05-23T23:34:15.729Z,10.53
2018-05-23T23:36:42.044Z,14.87
2018-05-23T23:39:08.293Z,14.13
2018-05-23T23:41:34.661Z,13.67
2018-05-23T23:44:00.889Z,14.60
2018-05-23T23:46:27.167Z,15.13
2018-05-23T23:48:54.251Z,17.57
2018-05-23T23:51:20.489Z,15.53
2018-05-23T23:53:46.791Z,14.70
2018-05-23T23:56:13.808Z,16.23
2018-05-23T23:58:40.045Z,13.77
